Orange, Ohio
Current Conditions -  °F | °C
As of 12:45 PM on Friday 24 Oct 2014 (Local Time) from KCGF Reporting Station
Broken Clouds Broken Clouds  
Wind Chill: 59°   Ceiling: 25000
Heat Index: 59°   Visibility: 15mi
Dew Point: 45°   Wind: 10mph
Humidity: 59%   Direction: 300°WNW
Pressure: 30.07"   Gusts: 20mph
Location:  41.4475°N, 81.4018°W
Report Text: KCGF 241645Z 30009G17KT 15SM BKN250 15/07 A3007
Loading
Personal Weather Stations






























Interactive Weather Map New forecast layout! Learn more

10-Day Weather Forecast

Advertisements
Track Severe Weather on mobile